sensor_id;sensor_type;location;lat;lon;timestamp;temperature;humidity
75769;DHT22;64379;48.888;8.330;2023-04-25T00:00:50;8.60;71.70
75769;DHT22;64379;48.888;8.330;2023-04-25T00:03:17;8.60;71.80
75769;DHT22;64379;48.888;8.330;2023-04-25T00:05:43;8.60;72.00
75769;DHT22;64379;48.888;8.330;2023-04-25T00:08:09;8.50;72.10
75769;DHT22;64379;48.888;8.330;2023-04-25T00:10:35;8.50;72.20
75769;DHT22;64379;48.888;8.330;2023-04-25T00:13:00;8.40;72.50
75769;DHT22;64379;48.888;8.330;2023-04-25T00:15:28;8.40;72.60
75769;DHT22;64379;48.888;8.330;2023-04-25T00:17:56;8.40;72.60
75769;DHT22;64379;48.888;8.330;2023-04-25T00:20:22;8.40;72.70
75769;DHT22;64379;48.888;8.330;2023-04-25T00:22:49;8.40;72.60
75769;DHT22;64379;48.888;8.330;2023-04-25T00:25:15;8.30;73.00
75769;DHT22;64379;48.888;8.330;2023-04-25T00:27:40;8.30;73.20
75769;DHT22;64379;48.888;8.330;2023-04-25T00:30:07;8.40;73.50
75769;DHT22;64379;48.888;8.330;2023-04-25T00:32:33;8.40;73.80
75769;DHT22;64379;48.888;8.330;2023-04-25T00:34:59;8.50;73.30
75769;DHT22;64379;48.888;8.330;2023-04-25T00:37:25;8.60;73.00
75769;DHT22;64379;48.888;8.330;2023-04-25T00:39:51;8.60;72.90
75769;DHT22;64379;48.888;8.330;2023-04-25T00:42:19;8.60;72.90
75769;DHT22;64379;48.888;8.330;2023-04-25T00:44:45;8.60;73.00
75769;DHT22;64379;48.888;8.330;2023-04-25T00:47:11;8.50;73.20
75769;DHT22;64379;48.888;8.330;2023-04-25T00:49:36;8.50;73.60
75769;DHT22;64379;48.888;8.330;2023-04-25T00:52:02;8.50;73.80
75769;DHT22;64379;48.888;8.330;2023-04-25T00:54:28;8.40;74.00
75769;DHT22;64379;48.888;8.330;2023-04-25T00:56:53;8.40;73.90
75769;DHT22;64379;48.888;8.330;2023-04-25T00:59:19;8.50;73.90
75769;DHT22;64379;48.888;8.330;2023-04-25T01:01:45;8.50;73.60
75769;DHT22;64379;48.888;8.330;2023-04-25T01:04:11;8.60;73.40
75769;DHT22;64379;48.888;8.330;2023-04-25T01:06:38;8.60;73.30
75769;DHT22;64379;48.888;8.330;2023-04-25T01:09:04;8.60;73.50
75769;DHT22;64379;48.888;8.330;2023-04-25T01:11:30;8.60;73.50
75769;DHT22;64379;48.888;8.330;2023-04-25T01:13:56;8.60;73.80
75769;DHT22;64379;48.888;8.330;2023-04-25T01:16:22;8.60;73.70
75769;DHT22;64379;48.888;8.330;2023-04-25T01:18:49;8.60;73.70
75769;DHT22;64379;48.888;8.330;2023-04-25T01:21:16;8.60;73.50
75769;DHT22;64379;48.888;8.330;2023-04-25T01:23:42;8.60;73.40
75769;DHT22;64379;48.888;8.330;2023-04-25T01:26:11;8.60;73.30
75769;DHT22;64379;48.888;8.330;2023-04-25T01:28:38;8.60;73.00
75769;DHT22;64379;48.888;8.330;2023-04-25T01:31:06;8.60;72.70
75769;DHT22;64379;48.888;8.330;2023-04-25T01:33:32;8.60;72.70
75769;DHT22;64379;48.888;8.330;2023-04-25T01:35:58;8.70;72.60
75769;DHT22;64379;48.888;8.330;2023-04-25T01:38:23;8.70;72.60
75769;DHT22;64379;48.888;8.330;2023-04-25T01:40:50;8.70;72.70
75769;DHT22;64379;48.888;8.330;2023-04-25T01:43:16;8.70;72.90
75769;DHT22;64379;48.888;8.330;2023-04-25T01:45:42;8.70;73.00
75769;DHT22;64379;48.888;8.330;2023-04-25T01:48:09;8.60;73.00
75769;DHT22;64379;48.888;8.330;2023-04-25T01:50:35;8.60;73.10
75769;DHT22;64379;48.888;8.330;2023-04-25T01:53:00;8.70;73.20
75769;DHT22;64379;48.888;8.330;2023-04-25T01:55:27;8.70;73.30
75769;DHT22;64379;48.888;8.330;2023-04-25T01:57:53;8.70;73.50
75769;DHT22;64379;48.888;8.330;2023-04-25T02:00:19;8.60;73.50
75769;DHT22;64379;48.888;8.330;2023-04-25T02:02:45;8.60;73.80
75769;DHT22;64379;48.888;8.330;2023-04-25T02:05:10;8.60;74.00
75769;DHT22;64379;48.888;8.330;2023-04-25T02:07:36;8.60;74.10
75769;DHT22;64379;48.888;8.330;2023-04-25T02:10:03;8.60;74.00
75769;DHT22;64379;48.888;8.330;2023-04-25T02:12:28;8.60;73.90
75769;DHT22;64379;48.888;8.330;2023-04-25T02:14:54;8.60;73.90
75769;DHT22;64379;48.888;8.330;2023-04-25T02:17:20;8.60;74.00
75769;DHT22;64379;48.888;8.330;2023-04-25T02:19:47;8.60;74.00
75769;DHT22;64379;48.888;8.330;2023-04-25T02:22:12;8.60;74.00
75769;DHT22;64379;48.888;8.330;2023-04-25T02:24:38;8.60;74.00
75769;DHT22;64379;48.888;8.330;2023-04-25T02:27:04;8.60;74.20
75769;DHT22;64379;48.888;8.330;2023-04-25T02:29:30;8.60;74.40
75769;DHT22;64379;48.888;8.330;2023-04-25T02:31:55;8.60;74.70
75769;DHT22;64379;48.888;8.330;2023-04-25T02:34:21;8.50;75.00
75769;DHT22;64379;48.888;8.330;2023-04-25T02:36:48;8.50;74.90
75769;DHT22;64379;48.888;8.330;2023-04-25T02:39:14;8.50;74.70
75769;DHT22;64379;48.888;8.330;2023-04-25T02:41:39;8.50;74.80
75769;DHT22;64379;48.888;8.330;2023-04-25T02:44:05;8.50;74.50
75769;DHT22;64379;48.888;8.330;2023-04-25T02:46:30;8.50;74.40
75769;DHT22;64379;48.888;8.330;2023-04-25T02:48:56;8.50;74.40
75769;DHT22;64379;48.888;8.330;2023-04-25T02:51:21;8.50;74.40
75769;DHT22;64379;48.888;8.330;2023-04-25T02:53:47;8.50;74.20
75769;DHT22;64379;48.888;8.330;2023-04-25T02:56:13;8.50;74.10
75769;DHT22;64379;48.888;8.330;2023-04-25T02:58:38;8.50;74.20
75769;DHT22;64379;48.888;8.330;2023-04-25T03:01:04;8.50;73.90
75769;DHT22;64379;48.888;8.330;2023-04-25T03:03:29;8.50;73.80
75769;DHT22;64379;48.888;8.330;2023-04-25T03:05:55;8.50;73.80
75769;DHT22;64379;48.888;8.330;2023-04-25T03:08:20;8.50;73.80
75769;DHT22;64379;48.888;8.330;2023-04-25T03:10:46;8.50;73.90
75769;DHT22;64379;48.888;8.330;2023-04-25T03:13:12;8.50;74.10
75769;DHT22;64379;48.888;8.330;2023-04-25T03:15:38;8.50;73.90
75769;DHT22;64379;48.888;8.330;2023-04-25T03:18:04;8.50;73.90
75769;DHT22;64379;48.888;8.330;2023-04-25T03:20:30;8.50;73.70
75769;DHT22;64379;48.888;8.330;2023-04-25T03:22:56;8.50;73.90
75769;DHT22;64379;48.888;8.330;2023-04-25T03:25:21;8.50;73.60
75769;DHT22;64379;48.888;8.330;2023-04-25T03:27:47;8.50;73.60
75769;DHT22;64379;48.888;8.330;2023-04-25T03:30:12;8.50;73.00
75769;DHT22;64379;48.888;8.330;2023-04-25T03:32:38;8.50;73.00
75769;DHT22;64379;48.888;8.330;2023-04-25T03:35:04;8.50;72.90
75769;DHT22;64379;48.888;8.330;2023-04-25T03:37:30;8.50;72.70
75769;DHT22;64379;48.888;8.330;2023-04-25T03:39:56;8.50;72.90
75769;DHT22;64379;48.888;8.330;2023-04-25T03:42:21;8.50;73.00
75769;DHT22;64379;48.888;8.330;2023-04-25T03:44:49;8.40;73.80
75769;DHT22;64379;48.888;8.330;2023-04-25T03:47:15;8.40;74.10
75769;DHT22;64379;48.888;8.330;2023-04-25T03:49:41;8.40;74.70
75769;DHT22;64379;48.888;8.330;2023-04-25T03:52:07;8.40;74.90
75769;DHT22;64379;48.888;8.330;2023-04-25T03:54:33;8.40;75.20
75769;DHT22;64379;48.888;8.330;2023-04-25T03:56:58;8.40;74.60
75769;DHT22;64379;48.888;8.330;2023-04-25T03:59:24;8.30;75.60
75769;DHT22;64379;48.888;8.330;2023-04-25T04:01:51;8.20;76.30
75769;DHT22;64379;48.888;8.330;2023-04-25T04:04:17;8.10;76.90
75769;DHT22;64379;48.888;8.330;2023-04-25T04:06:43;8.00;77.60
75769;DHT22;64379;48.888;8.330;2023-04-25T04:09:08;8.00;78.00
75769;DHT22;64379;48.888;8.330;2023-04-25T04:11:37;7.90;78.80
75769;DHT22;64379;48.888;8.330;2023-04-25T04:14:06;7.90;78.80
75769;DHT22;64379;48.888;8.330;2023-04-25T04:16:32;7.80;79.00
75769;DHT22;64379;48.888;8.330;2023-04-25T04:18:57;7.90;79.40
75769;DHT22;64379;48.888;8.330;2023-04-25T04:21:23;8.00;79.30
75769;DHT22;64379;48.888;8.330;2023-04-25T04:23:49;7.90;79.00
75769;DHT22;64379;48.888;8.330;2023-04-25T04:26:15;8.00;78.90
75769;DHT22;64379;48.888;8.330;2023-04-25T04:28:44;8.00;78.90
75769;DHT22;64379;48.888;8.330;2023-04-25T04:31:10;8.00;79.00
75769;DHT22;64379;48.888;8.330;2023-04-25T04:33:36;8.00;79.80
75769;DHT22;64379;48.888;8.330;2023-04-25T04:36:02;8.00;81.10
75769;DHT22;64379;48.888;8.330;2023-04-25T04:38:29;8.00;81.60
75769;DHT22;64379;48.888;8.330;2023-04-25T04:40:54;8.00;82.10
75769;DHT22;64379;48.888;8.330;2023-04-25T04:43:21;8.00;82.30
75769;DHT22;64379;48.888;8.330;2023-04-25T04:45:48;7.90;82.10
75769;DHT22;64379;48.888;8.330;2023-04-25T04:48:14;7.90;82.20
75769;DHT22;64379;48.888;8.330;2023-04-25T04:50:40;7.70;82.60
75769;DHT22;64379;48.888;8.330;2023-04-25T04:53:06;7.50;83.30
75769;DHT22;64379;48.888;8.330;2023-04-25T04:55:32;7.60;83.70
75769;DHT22;64379;48.888;8.330;2023-04-25T04:57:57;7.60;83.90
75769;DHT22;64379;48.888;8.330;2023-04-25T05:00:23;7.70;83.70
75769;DHT22;64379;48.888;8.330;2023-04-25T05:02:49;7.80;83.80
75769;DHT22;64379;48.888;8.330;2023-04-25T05:05:14;7.80;83.80
75769;DHT22;64379;48.888;8.330;2023-04-25T05:07:40;8.00;83.10
75769;DHT22;64379;48.888;8.330;2023-04-25T05:10:06;8.00;82.00
75769;DHT22;64379;48.888;8.330;2023-04-25T05:12:32;8.00;81.70
75769;DHT22;64379;48.888;8.330;2023-04-25T05:14:57;8.00;81.80
75769;DHT22;64379;48.888;8.330;2023-04-25T05:17:23;7.90;81.70
75769;DHT22;64379;48.888;8.330;2023-04-25T05:19:49;7.80;82.00
75769;DHT22;64379;48.888;8.330;2023-04-25T05:22:14;7.90;82.30
75769;DHT22;64379;48.888;8.330;2023-04-25T05:24:40;7.90;81.90
75769;DHT22;64379;48.888;8.330;2023-04-25T05:27:05;7.90;81.60
75769;DHT22;64379;48.888;8.330;2023-04-25T05:29:31;7.90;80.80
75769;DHT22;64379;48.888;8.330;2023-04-25T05:31:57;7.80;80.90
75769;DHT22;64379;48.888;8.330;2023-04-25T05:34:23;7.90;80.80
75769;DHT22;64379;48.888;8.330;2023-04-25T05:36:48;7.90;80.70
75769;DHT22;64379;48.888;8.330;2023-04-25T05:39:17;7.90;80.70
75769;DHT22;64379;48.888;8.330;2023-04-25T05:41:43;7.80;80.90
75769;DHT22;64379;48.888;8.330;2023-04-25T05:44:09;7.80;80.70
75769;DHT22;64379;48.888;8.330;2023-04-25T05:46:35;7.80;81.00
75769;DHT22;64379;48.888;8.330;2023-04-25T05:49:00;7.80;81.30
75769;DHT22;64379;48.888;8.330;2023-04-25T05:51:26;7.80;81.40
75769;DHT22;64379;48.888;8.330;2023-04-25T05:53:53;7.80;81.60
75769;DHT22;64379;48.888;8.330;2023-04-25T05:56:18;7.80;81.50
75769;DHT22;64379;48.888;8.330;2023-04-25T05:58:44;7.80;81.30
75769;DHT22;64379;48.888;8.330;2023-04-25T06:01:10;7.70;81.00
75769;DHT22;64379;48.888;8.330;2023-04-25T06:03:35;7.70;80.70
75769;DHT22;64379;48.888;8.330;2023-04-25T06:06:03;7.60;81.20
75769;DHT22;64379;48.888;8.330;2023-04-25T06:08:29;7.60;81.50
75769;DHT22;64379;48.888;8.330;2023-04-25T06:10:54;7.60;82.10
75769;DHT22;64379;48.888;8.330;2023-04-25T06:13:20;7.60;82.20
75769;DHT22;64379;48.888;8.330;2023-04-25T06:15:45;7.60;82.20
75769;DHT22;64379;48.888;8.330;2023-04-25T06:18:11;7.60;82.30
75769;DHT22;64379;48.888;8.330;2023-04-25T06:20:37;7.50;82.20
75769;DHT22;64379;48.888;8.330;2023-04-25T06:23:02;7.50;82.10
75769;DHT22;64379;48.888;8.330;2023-04-25T06:25:28;7.50;82.60
75769;DHT22;64379;48.888;8.330;2023-04-25T06:27:53;7.50;82.80
75769;DHT22;64379;48.888;8.330;2023-04-25T06:30:19;7.50;82.70
75769;DHT22;64379;48.888;8.330;2023-04-25T06:32:48;7.50;82.60
75769;DHT22;64379;48.888;8.330;2023-04-25T06:35:14;7.50;82.80
75769;DHT22;64379;48.888;8.330;2023-04-25T06:37:40;7.50;83.30
75769;DHT22;64379;48.888;8.330;2023-04-25T06:40:06;7.50;83.70
75769;DHT22;64379;48.888;8.330;2023-04-25T06:42:32;7.50;83.50
75769;DHT22;64379;48.888;8.330;2023-04-25T06:44:57;7.50;83.50
75769;DHT22;64379;48.888;8.330;2023-04-25T06:47:23;7.50;83.50
75769;DHT22;64379;48.888;8.330;2023-04-25T06:49:49;7.50;83.70
75769;DHT22;64379;48.888;8.330;2023-04-25T06:52:14;7.50;83.70
75769;DHT22;64379;48.888;8.330;2023-04-25T06:54:40;7.50;83.80
75769;DHT22;64379;48.888;8.330;2023-04-25T06:57:05;7.50;83.80
75769;DHT22;64379;48.888;8.330;2023-04-25T06:59:31;7.50;84.20
75769;DHT22;64379;48.888;8.330;2023-04-25T07:01:58;7.50;84.00
75769;DHT22;64379;48.888;8.330;2023-04-25T07:04:23;7.50;84.10
75769;DHT22;64379;48.888;8.330;2023-04-25T07:06:49;7.40;84.10
75769;DHT22;64379;48.888;8.330;2023-04-25T07:09:15;7.40;84.20
75769;DHT22;64379;48.888;8.330;2023-04-25T07:11:40;7.40;84.10
75769;DHT22;64379;48.888;8.330;2023-04-25T07:14:06;7.40;84.40
75769;DHT22;64379;48.888;8.330;2023-04-25T07:16:31;7.40;84.70
75769;DHT22;64379;48.888;8.330;2023-04-25T07:18:57;7.40;85.00
75769;DHT22;64379;48.888;8.330;2023-04-25T07:21:23;7.40;85.00
75769;DHT22;64379;48.888;8.330;2023-04-25T07:23:48;7.50;85.30
75769;DHT22;64379;48.888;8.330;2023-04-25T07:26:14;7.50;85.40
75769;DHT22;64379;48.888;8.330;2023-04-25T07:28:39;7.50;85.20
75769;DHT22;64379;48.888;8.330;2023-04-25T07:31:05;7.60;85.40
75769;DHT22;64379;48.888;8.330;2023-04-25T07:33:31;7.60;85.40
75769;DHT22;64379;48.888;8.330;2023-04-25T07:35:57;7.70;85.20
75769;DHT22;64379;48.888;8.330;2023-04-25T07:38:23;7.60;85.10
75769;DHT22;64379;48.888;8.330;2023-04-25T07:40:49;7.60;85.00
75769;DHT22;64379;48.888;8.330;2023-04-25T07:43:15;7.50;85.30
75769;DHT22;64379;48.888;8.330;2023-04-25T07:45:45;7.50;85.30
75769;DHT22;64379;48.888;8.330;2023-04-25T07:48:15;7.40;85.70
75769;DHT22;64379;48.888;8.330;2023-04-25T07:50:41;7.40;86.00
75769;DHT22;64379;48.888;8.330;2023-04-25T07:53:07;7.30;86.00
75769;DHT22;64379;48.888;8.330;2023-04-25T07:55:32;7.40;86.40
75769;DHT22;64379;48.888;8.330;2023-04-25T07:57:58;7.40;86.70
75769;DHT22;64379;48.888;8.330;2023-04-25T08:00:23;7.50;87.10
75769;DHT22;64379;48.888;8.330;2023-04-25T08:02:49;7.50;87.20
75769;DHT22;64379;48.888;8.330;2023-04-25T08:05:16;7.50;86.80
75769;DHT22;64379;48.888;8.330;2023-04-25T08:07:41;7.50;85.80
75769;DHT22;64379;48.888;8.330;2023-04-25T08:10:08;7.60;85.80
75769;DHT22;64379;48.888;8.330;2023-04-25T08:12:34;7.70;85.50
75769;DHT22;64379;48.888;8.330;2023-04-25T08:15:00;7.80;85.30
75769;DHT22;64379;48.888;8.330;2023-04-25T08:17:26;7.80;85.30
75769;DHT22;64379;48.888;8.330;2023-04-25T08:19:51;7.80;85.30
75769;DHT22;64379;48.888;8.330;2023-04-25T08:22:17;7.80;84.70
75769;DHT22;64379;48.888;8.330;2023-04-25T08:24:42;7.80;84.40
75769;DHT22;64379;48.888;8.330;2023-04-25T08:27:08;7.70;84.50
75769;DHT22;64379;48.888;8.330;2023-04-25T08:29:34;7.70;84.60
75769;DHT22;64379;48.888;8.330;2023-04-25T08:32:00;7.80;84.90
75769;DHT22;64379;48.888;8.330;2023-04-25T08:34:26;7.80;84.80
75769;DHT22;64379;48.888;8.330;2023-04-25T08:36:52;7.90;85.10
75769;DHT22;64379;48.888;8.330;2023-04-25T08:39:18;8.00;85.60
75769;DHT22;64379;48.888;8.330;2023-04-25T08:41:44;8.00;85.20
75769;DHT22;64379;48.888;8.330;2023-04-25T08:44:12;8.00;85.20
75769;DHT22;64379;48.888;8.330;2023-04-25T08:46:39;7.90;84.70
75769;DHT22;64379;48.888;8.330;2023-04-25T08:49:07;7.80;85.00
75769;DHT22;64379;48.888;8.330;2023-04-25T08:51:36;7.80;85.20
75769;DHT22;64379;48.888;8.330;2023-04-25T08:54:11;7.80;85.60
75769;DHT22;64379;48.888;8.330;2023-04-25T08:56:45;7.80;85.10
75769;DHT22;64379;48.888;8.330;2023-04-25T08:59:13;7.80;85.40
75769;DHT22;64379;48.888;8.330;2023-04-25T09:01:39;7.70;85.30
75769;DHT22;64379;48.888;8.330;2023-04-25T09:04:04;7.70;85.40
75769;DHT22;64379;48.888;8.330;2023-04-25T09:06:30;7.70;85.50
75769;DHT22;64379;48.888;8.330;2023-04-25T09:09:06;7.60;85.60
75769;DHT22;64379;48.888;8.330;2023-04-25T09:11:33;7.70;86.10
75769;DHT22;64379;48.888;8.330;2023-04-25T09:14:16;7.60;86.20
75769;DHT22;64379;48.888;8.330;2023-04-25T09:19:29;7.50;86.40
75769;DHT22;64379;48.888;8.330;2023-04-25T09:22:00;7.50;86.20
75769;DHT22;64379;48.888;8.330;2023-04-25T09:27:07;7.60;86.10
75769;DHT22;64379;48.888;8.330;2023-04-25T09:29:35;7.70;86.20
75769;DHT22;64379;48.888;8.330;2023-04-25T09:32:21;7.80;86.00
75769;DHT22;64379;48.888;8.330;2023-04-25T09:37:22;8.00;84.30
75769;DHT22;64379;48.888;8.330;2023-04-25T09:39:50;8.10;85.30
75769;DHT22;64379;48.888;8.330;2023-04-25T09:42:16;8.20;84.20
75769;DHT22;64379;48.888;8.330;2023-04-25T09:44:44;8.20;83.50
75769;DHT22;64379;48.888;8.330;2023-04-25T09:47:11;8.10;83.50
75769;DHT22;64379;48.888;8.330;2023-04-25T09:49:40;8.10;82.50
75769;DHT22;64379;48.888;8.330;2023-04-25T09:52:07;8.10;83.00
75769;DHT22;64379;48.888;8.330;2023-04-25T09:54:32;8.10;83.30
75769;DHT22;64379;48.888;8.330;2023-04-25T09:57:07;8.20;83.30
75769;DHT22;64379;48.888;8.330;2023-04-25T09:59:39;8.10;82.30
75769;DHT22;64379;48.888;8.330;2023-04-25T10:02:08;8.00;81.80
75769;DHT22;64379;48.888;8.330;2023-04-25T10:04:35;8.00;83.00
75769;DHT22;64379;48.888;8.330;2023-04-25T10:07:06;8.00;83.70
75769;DHT22;64379;48.888;8.330;2023-04-25T10:09:32;7.80;83.90
75769;DHT22;64379;48.888;8.330;2023-04-25T10:12:02;7.80;84.40
75769;DHT22;64379;48.888;8.330;2023-04-25T10:14:30;7.70;84.10
75769;DHT22;64379;48.888;8.330;2023-04-25T10:16:57;7.60;83.40
75769;DHT22;64379;48.888;8.330;2023-04-25T10:19:24;7.50;84.10
75769;DHT22;64379;48.888;8.330;2023-04-25T10:24:23;7.50;84.00
75769;DHT22;64379;48.888;8.330;2023-04-25T10:26:50;7.60;83.40
75769;DHT22;64379;48.888;8.330;2023-04-25T10:29:26;7.60;83.40
75769;DHT22;64379;48.888;8.330;2023-04-25T10:31:52;7.60;83.30
75769;DHT22;64379;48.888;8.330;2023-04-25T10:34:18;7.60;83.70
75769;DHT22;64379;48.888;8.330;2023-04-25T10:36:51;7.80;84.00
75769;DHT22;64379;48.888;8.330;2023-04-25T10:39:25;7.80;82.80
75769;DHT22;64379;48.888;8.330;2023-04-25T10:41:56;7.80;82.70
75769;DHT22;64379;48.888;8.330;2023-04-25T10:44:22;7.70;83.40
75769;DHT22;64379;48.888;8.330;2023-04-25T10:46:50;7.40;80.70
75769;DHT22;64379;48.888;8.330;2023-04-25T10:49:37;7.00;81.20
75769;DHT22;64379;48.888;8.330;2023-04-25T10:54:57;6.30;86.60
75769;DHT22;64379;48.888;8.330;2023-04-25T10:59:58;6.40;87.50
75769;DHT22;64379;48.888;8.330;2023-04-25T11:02:26;6.60;88.00
75769;DHT22;64379;48.888;8.330;2023-04-25T11:04:53;6.80;88.20
75769;DHT22;64379;48.888;8.330;2023-04-25T11:09:54;7.00;87.50
75769;DHT22;64379;48.888;8.330;2023-04-25T11:12:19;7.20;87.30
75769;DHT22;64379;48.888;8.330;2023-04-25T11:14:45;7.20;86.80
75769;DHT22;64379;48.888;8.330;2023-04-25T11:17:11;7.20;85.60
75769;DHT22;64379;48.888;8.330;2023-04-25T11:19:36;7.30;85.50
75769;DHT22;64379;48.888;8.330;2023-04-25T11:22:03;7.50;85.60
75769;DHT22;64379;48.888;8.330;2023-04-25T11:24:33;7.60;85.40
75769;DHT22;64379;48.888;8.330;2023-04-25T11:27:03;7.80;84.10
75769;DHT22;64379;48.888;8.330;2023-04-25T11:29:33;7.80;82.10
75769;DHT22;64379;48.888;8.330;2023-04-25T11:31:59;7.80;81.90
75769;DHT22;64379;48.888;8.330;2023-04-25T11:34:26;7.90;82.10
75769;DHT22;64379;48.888;8.330;2023-04-25T11:36:53;8.20;81.80
75769;DHT22;64379;48.888;8.330;2023-04-25T11:39:20;8.50;81.70
75769;DHT22;64379;48.888;8.330;2023-04-25T11:41:46;8.70;82.20
75769;DHT22;64379;48.888;8.330;2023-04-25T11:44:12;8.80;78.20
75769;DHT22;64379;48.888;8.330;2023-04-25T11:46:40;8.80;77.20
75769;DHT22;64379;48.888;8.330;2023-04-25T11:49:06;8.80;77.10
75769;DHT22;64379;48.888;8.330;2023-04-25T11:51:38;8.60;77.60
75769;DHT22;64379;48.888;8.330;2023-04-25T11:54:05;8.10;77.90
75769;DHT22;64379;48.888;8.330;2023-04-25T11:56:31;8.00;80.00
75769;DHT22;64379;48.888;8.330;2023-04-25T11:59:02;7.80;78.90
75769;DHT22;64379;48.888;8.330;2023-04-25T12:01:32;7.80;81.10
75769;DHT22;64379;48.888;8.330;2023-04-25T12:04:09;7.90;81.70
75769;DHT22;64379;48.888;8.330;2023-04-25T12:06:37;8.00;79.70
75769;DHT22;64379;48.888;8.330;2023-04-25T12:09:11;8.00;79.80
75769;DHT22;64379;48.888;8.330;2023-04-25T12:11:45;8.10;80.10
75769;DHT22;64379;48.888;8.330;2023-04-25T12:14:20;8.20;80.00
75769;DHT22;64379;48.888;8.330;2023-04-25T12:16:46;8.30;79.20
75769;DHT22;64379;48.888;8.330;2023-04-25T12:19:16;8.10;79.00
75769;DHT22;64379;48.888;8.330;2023-04-25T12:21:42;8.00;79.20
75769;DHT22;64379;48.888;8.330;2023-04-25T12:24:15;8.00;80.10
75769;DHT22;64379;48.888;8.330;2023-04-25T12:29:27;8.20;80.00
75769;DHT22;64379;48.888;8.330;2023-04-25T12:31:54;8.20;79.40
75769;DHT22;64379;48.888;8.330;2023-04-25T12:34:21;8.20;79.90
75769;DHT22;64379;48.888;8.330;2023-04-25T12:36:48;8.30;79.60
75769;DHT22;64379;48.888;8.330;2023-04-25T12:39:21;8.40;78.30
75769;DHT22;64379;48.888;8.330;2023-04-25T12:41:50;8.60;79.20
75769;DHT22;64379;48.888;8.330;2023-04-25T12:44:19;8.90;78.50
75769;DHT22;64379;48.888;8.330;2023-04-25T12:46:45;8.90;77.80
75769;DHT22;64379;48.888;8.330;2023-04-25T12:49:11;8.80;78.30
75769;DHT22;64379;48.888;8.330;2023-04-25T12:51:37;8.60;77.30
75769;DHT22;64379;48.888;8.330;2023-04-25T12:54:04;8.60;76.50
75769;DHT22;64379;48.888;8.330;2023-04-25T12:56:31;8.60;77.20
75769;DHT22;64379;48.888;8.330;2023-04-25T12:58:57;8.60;78.50
75769;DHT22;64379;48.888;8.330;2023-04-25T13:01:22;8.60;78.10
75769;DHT22;64379;48.888;8.330;2023-04-25T13:03:48;8.50;77.70
75769;DHT22;64379;48.888;8.330;2023-04-25T13:06:18;8.40;79.10
75769;DHT22;64379;48.888;8.330;2023-04-25T13:08:44;8.30;79.40
75769;DHT22;64379;48.888;8.330;2023-04-25T13:11:09;8.30;80.50
75769;DHT22;64379;48.888;8.330;2023-04-25T13:13:35;8.50;81.00
75769;DHT22;64379;48.888;8.330;2023-04-25T13:16:02;8.80;80.80
75769;DHT22;64379;48.888;8.330;2023-04-25T13:18:29;9.00;79.50
75769;DHT22;64379;48.888;8.330;2023-04-25T13:20:54;9.10;77.70
75769;DHT22;64379;48.888;8.330;2023-04-25T13:23:20;9.00;77.70
75769;DHT22;64379;48.888;8.330;2023-04-25T13:25:46;9.20;77.40
75769;DHT22;64379;48.888;8.330;2023-04-25T13:28:13;9.20;77.50
75769;DHT22;64379;48.888;8.330;2023-04-25T13:30:39;9.50;77.30
75769;DHT22;64379;48.888;8.330;2023-04-25T13:33:05;9.70;75.40
75769;DHT22;64379;48.888;8.330;2023-04-25T13:35:32;10.10;75.50
75769;DHT22;64379;48.888;8.330;2023-04-25T13:37:58;10.70;75.20
75769;DHT22;64379;48.888;8.330;2023-04-25T13:40:24;12.00;72.50
75769;DHT22;64379;48.888;8.330;2023-04-25T13:42:49;12.90;66.80
75769;DHT22;64379;48.888;8.330;2023-04-25T13:45:16;13.40;60.50
75769;DHT22;64379;48.888;8.330;2023-04-25T13:47:42;13.10;61.80
75769;DHT22;64379;48.888;8.330;2023-04-25T13:50:08;13.00;63.70
75769;DHT22;64379;48.888;8.330;2023-04-25T13:52:33;12.90;61.70
75769;DHT22;64379;48.888;8.330;2023-04-25T13:54:59;13.10;61.40
75769;DHT22;64379;48.888;8.330;2023-04-25T13:57:25;14.10;59.30
75769;DHT22;64379;48.888;8.330;2023-04-25T13:59:51;15.00;57.40
75769;DHT22;64379;48.888;8.330;2023-04-25T14:02:18;14.30;54.70
75769;DHT22;64379;48.888;8.330;2023-04-25T14:04:43;12.90;56.70
75769;DHT22;64379;48.888;8.330;2023-04-25T14:07:09;12.90;61.10
75769;DHT22;64379;48.888;8.330;2023-04-25T14:09:36;12.60;62.50
75769;DHT22;64379;48.888;8.330;2023-04-25T14:12:02;12.50;59.80
75769;DHT22;64379;48.888;8.330;2023-04-25T14:14:28;12.10;60.10
75769;DHT22;64379;48.888;8.330;2023-04-25T14:16:53;11.90;61.20
75769;DHT22;64379;48.888;8.330;2023-04-25T14:19:22;12.00;63.00
75769;DHT22;64379;48.888;8.330;2023-04-25T14:21:49;12.60;60.50
75769;DHT22;64379;48.888;8.330;2023-04-25T14:24:14;12.30;58.00
75769;DHT22;64379;48.888;8.330;2023-04-25T14:26:41;11.70;60.20
75769;DHT22;64379;48.888;8.330;2023-04-25T14:29:09;11.40;62.10
75769;DHT22;64379;48.888;8.330;2023-04-25T14:31:37;11.30;61.30
75769;DHT22;64379;48.888;8.330;2023-04-25T14:34:04;11.40;62.00
75769;DHT22;64379;48.888;8.330;2023-04-25T14:36:30;11.30;62.40
75769;DHT22;64379;48.888;8.330;2023-04-25T14:38:56;10.90;60.30
75769;DHT22;64379;48.888;8.330;2023-04-25T14:41:22;10.90;62.60
75769;DHT22;64379;48.888;8.330;2023-04-25T14:43:48;10.60;61.30
75769;DHT22;64379;48.888;8.330;2023-04-25T14:46:14;10.90;63.70
75769;DHT22;64379;48.888;8.330;2023-04-25T14:48:40;11.30;60.40
75769;DHT22;64379;48.888;8.330;2023-04-25T14:51:06;11.30;61.50
75769;DHT22;64379;48.888;8.330;2023-04-25T14:53:31;11.00;62.80
75769;DHT22;64379;48.888;8.330;2023-04-25T14:55:57;11.10;61.80
75769;DHT22;64379;48.888;8.330;2023-04-25T14:58:23;11.00;64.20
75769;DHT22;64379;48.888;8.330;2023-04-25T15:00:48;11.10;62.80
75769;DHT22;64379;48.888;8.330;2023-04-25T15:03:14;11.10;64.80
75769;DHT22;64379;48.888;8.330;2023-04-25T15:05:41;11.00;62.70
75769;DHT22;64379;48.888;8.330;2023-04-25T15:08:07;11.20;62.60
75769;DHT22;64379;48.888;8.330;2023-04-25T15:10:34;11.50;62.00
75769;DHT22;64379;48.888;8.330;2023-04-25T15:12:59;11.50;61.30
75769;DHT22;64379;48.888;8.330;2023-04-25T15:15:25;11.10;63.00
75769;DHT22;64379;48.888;8.330;2023-04-25T15:17:52;10.60;66.20
75769;DHT22;64379;48.888;8.330;2023-04-25T15:20:19;10.60;67.70
75769;DHT22;64379;48.888;8.330;2023-04-25T15:22:44;10.70;67.20
75769;DHT22;64379;48.888;8.330;2023-04-25T15:25:14;10.80;67.90
75769;DHT22;64379;48.888;8.330;2023-04-25T15:27:41;10.80;68.90
75769;DHT22;64379;48.888;8.330;2023-04-25T15:30:10;10.60;70.00
75769;DHT22;64379;48.888;8.330;2023-04-25T15:32:42;10.20;70.90
75769;DHT22;64379;48.888;8.330;2023-04-25T15:35:09;10.10;73.30
75769;DHT22;64379;48.888;8.330;2023-04-25T15:37:35;9.70;75.10
75769;DHT22;64379;48.888;8.330;2023-04-25T15:40:08;9.50;77.30
75769;DHT22;64379;48.888;8.330;2023-04-25T15:42:42;9.40;78.30
75769;DHT22;64379;48.888;8.330;2023-04-25T15:45:09;9.30;78.20
75769;DHT22;64379;48.888;8.330;2023-04-25T15:47:36;9.20;79.70
75769;DHT22;64379;48.888;8.330;2023-04-25T15:50:03;9.10;80.10
75769;DHT22;64379;48.888;8.330;2023-04-25T15:52:31;9.00;80.60
75769;DHT22;64379;48.888;8.330;2023-04-25T15:54:57;9.00;79.70
75769;DHT22;64379;48.888;8.330;2023-04-25T15:57:22;8.80;79.40
75769;DHT22;64379;48.888;8.330;2023-04-25T15:59:48;8.80;79.30
75769;DHT22;64379;48.888;8.330;2023-04-25T16:02:15;8.70;79.80